Flight Track Log - Related Links

Times and Time Zones

All times are in EDT time to prevent confusion due to time zone crossing. See the UAL101 flight status page for this flight to view local times or setup timezone preferences in your user account.

Time Position Orientation Groundspeed Altitude Reporting Facility
EDT Latitude Longitude Course Direction KTS MPH feet Rate Location/Type
Mon 06:14:32 PM 38.9167 -77.5174 108° East  Level FlightAware Approximate
Mon 06:15:22 PM 38.9000 -77.4500 254° West 175 201 2,800  Level Potomac TRACON
Mon 06:20:07 PM 38.7972 -77.9169 283° West 339 390 18,000 3,148 Climbing Washington Center
Mon 06:21:07 PM 38.8197 -78.0403 284° West 339 390 20,900 2,750 Climbing Washington Center
Mon 06:22:07 PM 38.8442 -78.1689 274° West 355 409 23,500 2,430 Climbing Washington Center
Mon 06:23:08 PM 38.8517 -78.3025 269° West 374 430 25,800 1,664 Climbing Washington Center
Mon 06:24:06 PM 38.8506 -78.4386 269° West 395 455 26,800 1,322 Climbing Washington Center
Mon 06:25:06 PM 38.8489 -78.5931 268° West 420 483 28,400 1,686 Climbing Washington Center
Mon 06:26:07 PM 38.8447 -78.7528 259° West 442 509 30,200 1,820 Climbing Washington Center
Mon 06:27:08 PM 38.8217 -78.9089 258° West 448 516 32,100 1,815 Climbing Washington Center
Mon 06:28:06 PM 38.7967 -79.0650 262° West 453 521 33,800 1,664 Climbing Washington Center
Mon 06:29:07 PM 38.7767 -79.2425 259° West 458 527 35,400 725 Climbing Washington Center
Mon 06:31:08 PM 38.7300 -79.5356 259° West 458 527 36,000 201 Climbing Washington Center
Mon 06:32:06 PM 38.7058 -79.6914 258° West 458 527 36,000  Level Washington Center
Mon 06:33:06 PM 38.6797 -79.8469 258° West 453 521 36,000 397 Level Washington Center
Mon 06:34:07 PM 38.6528 -80.0153 258° West 448 516 36,800 984 Climbing Washington Center
Mon 06:35:08 PM 38.6283 -80.1681 257° West 448 516 38,000 595 Climbing Washington Center
Mon 06:36:08 PM 38.6017 -80.3178 260° West 448 516 38,000  Level Washington Center
Mon 06:37:04 PM 38.5819 -80.4592 280° West 444 511 38,000  Level Indianapolis Center
Mon 06:38:04 PM 38.6025 -80.6100 282° West 418 481 38,000  Level Indianapolis Center
Mon 06:39:04 PM 38.6269 -80.7578 272° West 412 474 38,000  Level Indianapolis Center
Mon 06:40:04 PM 38.6300 -80.8906 258° West 425 489 38,000 450 Level Indianapolis Center
Mon 06:41:04 PM 38.6042 -81.0403 248° West 420 483 38,900 1,000 Climbing Indianapolis Center
Mon 06:42:04 PM 38.5592 -81.1828 249° West 433 498 40,000 550 Climbing Indianapolis Center
Mon 06:43:04 PM 38.5161 -81.3247 248° West 438 504 40,000  Level Indianapolis Center
Mon 06:44:04 PM 38.4708 -81.4694 251° West 438 504 40,000  Level Indianapolis Center
Mon 06:45:04 PM 38.4314 -81.6136 250° West 438 504 40,000  Level Indianapolis Center
Mon 06:46:04 PM 38.3900 -81.7553 250° West 433 498 40,000  Level Indianapolis Center
Mon 06:47:04 PM 38.3503 -81.8939 250° West 428 493 40,000  Level Indianapolis Center
Mon 06:48:04 PM 38.3106 -82.0325 249° West 428 493 40,000  Level Indianapolis Center
Mon 06:49:04 PM 38.2683 -82.1708 249° West 428 493 40,000  Level Indianapolis Center
Mon 06:50:04 PM 38.2261 -82.3119 249° West 428 493 40,000  Level Indianapolis Center
Mon 06:51:04 PM 38.1817 -82.4606 249° West 422 486 40,000  Level Indianapolis Center
Mon 06:52:04 PM 38.1453 -82.5825 248° West 422 486 40,000  Level Indianapolis Center
Mon 06:53:04 PM 38.1025 -82.7178 249° West 412 474 40,000  Level Indianapolis Center
Mon 06:54:04 PM 38.0617 -82.8528 249° West 412 474 40,000  Level Indianapolis Center
Mon 06:55:04 PM 38.0186 -82.9928 248° West 417 480 40,000  Level Indianapolis Center
Mon 06:56:04 PM 37.9753 -83.1303 249° West 417 480 40,000  Level Indianapolis Center
Mon 06:57:04 PM 37.9319 -83.2700 249° West 422 486 40,000  Level Indianapolis Center
Mon 06:58:04 PM 37.8906 -83.4097 247° West 427 491 40,000  Level Indianapolis Center
Mon 06:59:04 PM 37.8447 -83.5464 248° West 432 497 40,000  Level Indianapolis Center
Mon 07:00:04 PM 37.8008 -83.6858 249° West 432 497 40,000  Level Indianapolis Center
Mon 07:01:04 PM 37.7569 -83.8275 248° West 432 497 40,000  Level Indianapolis Center
Mon 07:02:04 PM 37.7125 -83.9639 248° West 432 497 40,000  Level Indianapolis Center
Mon 07:03:04 PM 37.6683 -84.1028 248° West 432 497 40,000  Level Indianapolis Center
Mon 07:04:04 PM 37.6236 -84.2389 248° West 432 497 40,000  Level Indianapolis Center
Mon 07:05:04 PM 37.5792 -84.3747 247° West 427 491 40,000  Level Indianapolis Center
Mon 07:06:04 PM 37.5342 -84.5103 248° West 427 491 40,000  Level Indianapolis Center
Mon 07:07:04 PM 37.4892 -84.6486 248° West 434 499 40,000  Level Indianapolis Center
Mon 07:08:04 PM 37.4461 -84.7839 248° West 428 493 40,000  Level Indianapolis Center
Mon 07:09:04 PM 37.4008 -84.9217 246° West 428 493 40,000  Level Indianapolis Center
Mon 07:10:56 PM 37.3108 -85.1703 248° West 420 483 40,000  Level Memphis Center
Mon 07:11:56 PM 37.2667 -85.3086 247° West 420 483 40,000  Level Memphis Center
Mon 07:14:56 PM 37.1306 -85.7178 246° West 420 483 40,000  Level Memphis Center
Mon 07:15:56 PM 37.0853 -85.8481 247° West 420 483 40,000  Level Memphis Center
Mon 07:16:56 PM 37.0400 -85.9806 247° West 420 483 40,000  Level Memphis Center
Mon 07:19:56 PM 36.9033 -86.3744 247° West 413 475 40,000  Level Memphis Center
Mon 07:20:56 PM 36.8575 -86.5089 246° West 418 481 40,000  Level Memphis Center
Mon 07:21:56 PM 36.8114 -86.6383 246° West 418 481 40,000  Level Memphis Center
Mon 07:22:57 PM 36.7633 -86.7725 246° West 423 487 40,000  Level Memphis Center
Mon 07:23:56 PM 36.7150 -86.9092 247° West 423 487 40,000  Level Memphis Center
Mon 07:24:56 PM 36.6689 -87.0458 246° West 423 487 40,000  Level Memphis Center
Mon 07:25:56 PM 36.6203 -87.1822 247° West 423 487 40,000  Level Memphis Center
Mon 07:26:56 PM 36.5736 -87.3158 258° West 423 487 40,000  Level Memphis Center
Mon 07:27:56 PM 36.5500 -87.4589 259° West 423 487 40,000  Level Memphis Center
Mon 07:28:56 PM 36.5281 -87.5989 260° West 418 481 40,000  Level Memphis Center
Mon 07:29:56 PM 36.5100 -87.7236 260° West 418 481 40,000  Level Memphis Center
Mon 07:30:56 PM 36.4900 -87.8661 260° West 418 481 40,000  Level Memphis Center
Mon 07:31:56 PM 36.4697 -88.0061 260° West 418 481 40,000  Level Memphis Center
Mon 07:32:56 PM 36.4514 -88.1408 260° West 408 470 40,000  Level Memphis Center
Mon 07:33:56 PM 36.4308 -88.2806 260° West 408 470 40,000  Level Memphis Center
Mon 07:34:56 PM 36.4103 -88.4203 258° West 408 470 40,000  Level Memphis Center
Mon 07:35:56 PM 36.3872 -88.5575 260° West 413 475 40,000  Level Memphis Center
Mon 07:36:56 PM 36.3664 -88.6972 260° West 413 475 40,000  Level Memphis Center
Mon 07:37:56 PM 36.3453 -88.8419 258° West 413 475 40,000  Level Memphis Center
Mon 07:38:56 PM 36.3219 -88.9789 258° West 413 475 40,000  Level Memphis Center
Mon 07:39:56 PM 36.2983 -89.1183 260° West 413 475 40,000  Level Memphis Center
Mon 07:40:56 PM 36.2767 -89.2628 257° West 419 482 40,000  Level Memphis Center
Mon 07:41:56 PM 36.2467 -89.4228 261° West 431 496 40,000  Level Memphis Center
Mon 07:42:56 PM 36.2289 -89.5619 260° West 431 496 40,000  Level Memphis Center
Mon 07:43:56 PM 36.2089 -89.7011 259° West 425 489 40,000  Level Memphis Center
Mon 07:44:56 PM 36.1867 -89.8428 259° West 420 483 40,000  Level Memphis Center
Mon 07:45:56 PM 36.1642 -89.9842 258° West 420 483 40,000  Level Memphis Center
Mon 07:46:56 PM 36.1417 -90.1206 258° West 420 483 40,000  Level Memphis Center
Mon 07:47:56 PM 36.1169 -90.2619 259° West 420 483 40,000  Level Memphis Center
Mon 07:48:56 PM 36.0961 -90.3981 258° West 414 476 40,000  Level Memphis Center
Mon 07:49:56 PM 36.0708 -90.5392 255° West 414 476 40,000  Level Memphis Center
Mon 07:50:56 PM 36.0414 -90.6753 253° West 414 476 40,000  Level Memphis Center
Mon 07:51:56 PM 36.0078 -90.8086 254° West 414 476 40,000  Level Memphis Center
Mon 07:52:56 PM 35.9758 -90.9417 253° West 414 476 40,000  Level Memphis Center
Mon 07:53:56 PM 35.9439 -91.0722 254° West 414 476 40,000  Level Memphis Center
Mon 07:54:56 PM 35.9119 -91.2053 249° West 408 470 40,000  Level Memphis Center
Mon 07:55:56 PM 35.8733 -91.3306 242° Southwest 402 463 40,000  Level Memphis Center
Mon 07:56:56 PM 35.8225 -91.4478 253° West 396 456 40,000  Level Memphis Center
Mon 07:57:56 PM 35.7900 -91.5778 254° West 396 456 40,000  Level Memphis Center
Mon 07:58:56 PM 35.7594 -91.7078 254° West 396 456 40,000  Level Memphis Center
Mon 07:59:56 PM 35.7286 -91.8403 255° West 396 456 40,000  Level Memphis Center
Mon 08:00:56 PM 35.7000 -91.9675 253° West 396 456 40,000  Level Memphis Center
Mon 08:01:56 PM 35.6669 -92.0997 254° West 396 456 40,000  Level Memphis Center
Mon 08:02:56 PM 35.6358 -92.2319 253° West 396 456 40,000  Level Memphis Center
Mon 08:03:56 PM 35.6047 -92.3564 253° West 396 456 40,000  Level Memphis Center
Mon 08:04:56 PM 35.5733 -92.4858 253° West 396 456 40,000  Level Memphis Center
Mon 08:05:56 PM 35.5419 -92.6125 255° West 396 456 40,000  Level Memphis Center
Mon 08:06:56 PM 35.5144 -92.7419 255° West 396 456 40,000  Level Memphis Center
Mon 08:07:56 PM 35.4847 -92.8736 251° West 406 467 40,000  Level Memphis Center
Mon 08:08:56 PM 35.4533 -92.9847 253° West 393 452 40,000  Level Memphis Center
Mon 08:09:56 PM 35.4236 -93.1061 252° West 387 445 40,000  Level Memphis Center
Mon 08:10:56 PM 35.3894 -93.2325 253° West 387 445 40,000  Level Memphis Center
Mon 08:11:56 PM 35.3572 -93.3636 253° West 395 455 40,000  Level Memphis Center
Mon 08:12:56 PM 35.3247 -93.4897 252° West 390 449 40,000  Level Memphis Center
Mon 08:13:56 PM 35.2903 -93.6183 253° West 395 455 40,000  Level Memphis Center
Mon 08:14:56 PM 35.2575 -93.7467 253° West 395 455 40,000  Level Memphis Center
Mon 08:15:56 PM 35.2247 -93.8750 253° West 395 455 40,000  Level Memphis Center
Mon 08:16:56 PM 35.1919 -94.0031 251° West 395 455 40,000  Level Memphis Center
Mon 08:17:56 PM 35.1569 -94.1286 254° West 395 455 40,000  Level Memphis Center
Mon 08:18:56 PM 35.1258 -94.2592 252° West 395 455 40,000  Level Memphis Center
Mon 08:20:10 PM 35.0828 -94.4247 252° West 403 464 40,000  Level Fort Worth Center
Mon 08:21:10 PM 35.0483 -94.5503 250° West 403 464 40,000  Level Fort Worth Center
Mon 08:22:10 PM 35.0114 -94.6733 225° Southwest 398 458 40,000 -250 Level Fort Worth Center
Mon 08:23:10 PM 34.9342 -94.7669 223° Southwest 381 438 39,500 -650 Descending Fort Worth Center
Mon 08:24:10 PM 34.8647 -94.8450 221° Southwest 388 447 38,700 -900 Descending Fort Worth Center
Mon 08:25:10 PM 34.7831 -94.9308 221° Southwest 388 447 37,700 -950 Descending Fort Worth Center
Mon 08:26:10 PM 34.6992 -95.0192 221° Southwest 394 453 36,800 -950 Descending Fort Worth Center
Mon 08:27:10 PM 34.6217 -95.1019 221° Southwest 394 453 35,800 -950 Descending Fort Worth Center
Mon 08:28:10 PM 34.5375 -95.1900 222° Southwest 394 453 34,900 -1,550 Descending Fort Worth Center
Mon 08:29:10 PM 34.4536 -95.2828 220° Southwest 406 467 32,700 -1,950 Descending Fort Worth Center
Mon 08:30:10 PM 34.3553 -95.3833 222° Southwest 426 490 31,000 -1,050 Descending Fort Worth Center
Mon 08:31:10 PM 34.2650 -95.4811 220° Southwest 441 507 30,600 -750 Descending Fort Worth Center
Mon 08:32:10 PM 34.1622 -95.5861 222° Southwest 451 519 29,500 -1,050 Descending Fort Worth Center
Mon 08:33:10 PM 34.0819 -95.6733 222° Southwest 445 512 28,500 -950 Descending Fort Worth Center
Mon 08:34:10 PM 33.9894 -95.7753 220° Southwest 445 512 27,600 -950 Descending Fort Worth Center
Mon 08:35:10 PM 33.8844 -95.8822 219° Southwest 445 512 26,600 -1,000 Descending Fort Worth Center
Mon 08:36:10 PM 33.7894 -95.9764 221° Southwest 450 518 25,600 -1,050 Descending Fort Worth Center
Mon 08:37:10 PM 33.6986 -96.0728 219° Southwest 450 518 24,500 -1,650 Descending Fort Worth Center
Mon 08:38:10 PM 33.6161 -96.1539 222° Southwest 445 512 22,300 -2,500 Descending Fort Worth Center
Mon 08:38:58 PM 33.5450 -96.2311 224° Southwest 410 472 20,000 -2,932 Descending FAA TRACON SMA TRACON (SMA)
Mon 08:39:38 PM 33.4900 -96.2953 225° Southwest 399 459 18,000 -2,625 Descending FAA TRACON SMA TRACON (SMA)
Mon 08:40:18 PM 33.4367 -96.3586 228° Southwest 389 448 16,500 -1,725 Descending FAA TRACON SMA TRACON (SMA)
Mon 08:40:58 PM 33.3917 -96.4189 221° Southwest 356 410 15,700 -1,725 Descending FAA TRACON SMA TRACON (SMA)
Mon 08:41:38 PM 33.3453 -96.4672 227° Southwest 350 403 14,200 -2,025 Descending FAA TRACON SMA TRACON (SMA)
Mon 08:42:18 PM 33.3008 -96.5244 223° Southwest 343 395 13,000 -1,950 Descending FAA TRACON SMA TRACON (SMA)
Mon 08:42:58 PM 33.2542 -96.5772 224° Southwest 332 382 11,600 -1,575 Descending FAA TRACON SMA TRACON (SMA)
Mon 08:43:38 PM 33.2139 -96.6239 224° Southwest 325 374 10,900 -450 Descending FAA TRACON SMA TRACON (SMA)
Mon 08:44:18 PM 33.1719 -96.6731 225° Southwest 296 341 11,000 75 Climbing FAA TRACON SMA TRACON (SMA)
Mon 08:44:58 PM 33.1367 -96.7153 225° Southwest 292 336 11,000  Level FAA TRACON SMA TRACON (SMA)
Mon 08:45:38 PM 33.0969 -96.7619 225° Southwest 289 333 11,000  Level FAA TRACON SMA TRACON (SMA)
Mon 08:46:18 PM 33.0575 -96.8086 223° Southwest 289 333 11,000  Level FAA TRACON SMA TRACON (SMA)
Mon 08:46:58 PM 33.0169 -96.8542 224° Southwest 287 330 11,000  Level FAA TRACON SMA TRACON (SMA)
Mon 08:47:38 PM 32.9822 -96.8942 192° South 285 328 11,000 -296 Level FAA TRACON SMA TRACON (SMA)
Mon 08:48:19 PM 32.9322 -96.9067 181° South 274 315 10,600 -900 Descending FAA TRACON SMA TRACON (SMA)
Mon 08:48:58 PM 32.8819 -96.9072 175° South 260 299 9,800 -1,291 Descending FAA TRACON SMA TRACON (SMA)
Mon 08:49:38 PM 32.8364 -96.9028 185° South 263 303 8,900 -1,500 Descending FAA TRACON SMA TRACON (SMA)
Mon 08:50:18 PM 32.7881 -96.9081 177° South 256 295 7,800 -1,500 Descending FAA TRACON SMA TRACON (SMA)
Mon 08:50:58 PM 32.7439 -96.9056 196° South 250 288 6,900 -1,425 Descending FAA TRACON SMA TRACON (SMA)
Mon 08:51:38 PM 32.6997 -96.9208 229° Southwest 252 290 5,900 -1,575 Descending FAA TRACON SMA TRACON (SMA)
Mon 08:52:18 PM 32.6703 -96.9617 285° West 238 274 4,800 -1,425 Descending FAA TRACON SMA TRACON (SMA)
Mon 08:52:58 PM 32.6806 -97.0067 332° Northwest 238 274 4,000 -900 Descending FAA TRACON SMA TRACON (SMA)
Mon 08:53:38 PM 32.7142 -97.0278 360° North 216 249 3,600 -825 Descending FAA TRACON SMA TRACON (SMA)
Mon 08:54:18 PM 32.7508 -97.0275 360° North 188 216 2,900 -975 Descending FAA TRACON SMA TRACON (SMA)
Mon 08:54:58 PM 32.7828 -97.0278 North 166 191 2,300 -825 Descending FAA TRACON SMA TRACON (SMA)
Mon 08:55:38 PM 32.8106 -97.0261 North 148 170 1,800 -750 Descending FAA TRACON SMA TRACON (SMA)

Login

Don't have an account? Register now (free) for customized features, flight alerts, and more!